sensor_id;sensor_type;location;lat;lon;timestamp;P1;durP1;ratioP1;P2;durP2;ratioP2
84482;SDS011;74703;51.284;22.590;2023-12-20T00:02:01;28.25;;;14.68;;
84482;SDS011;74703;51.284;22.590;2023-12-20T00:07:02;27.75;;;13.88;;
84482;SDS011;74703;51.284;22.590;2023-12-20T00:12:03;29.08;;;14.50;;
84482;SDS011;74703;51.284;22.590;2023-12-20T00:17:04;22.70;;;13.82;;
84482;SDS011;74703;51.284;22.590;2023-12-20T00:22:04;30.25;;;14.45;;
84482;SDS011;74703;51.284;22.590;2023-12-20T00:27:05;23.92;;;14.65;;
84482;SDS011;74703;51.284;22.590;2023-12-20T00:32:05;26.70;;;12.73;;
84482;SDS011;74703;51.284;22.590;2023-12-20T00:37:06;21.80;;;13.32;;
84482;SDS011;74703;51.284;22.590;2023-12-20T00:42:07;26.88;;;15.20;;
84482;SDS011;74703;51.284;22.590;2023-12-20T00:47:07;25.98;;;13.55;;
84482;SDS011;74703;51.284;22.590;2023-12-20T00:52:08;26.50;;;14.43;;
84482;SDS011;74703;51.284;22.590;2023-12-20T00:57:08;22.80;;;11.98;;
84482;SDS011;74703;51.284;22.590;2023-12-20T01:02:09;27.67;;;14.23;;
84482;SDS011;74703;51.284;22.590;2023-12-20T01:07:10;26.00;;;13.27;;
84482;SDS011;74703;51.284;22.590;2023-12-20T01:12:10;24.13;;;14.15;;
84482;SDS011;74703;51.284;22.590;2023-12-20T01:17:11;25.45;;;13.57;;
84482;SDS011;74703;51.284;22.590;2023-12-20T01:22:11;21.77;;;13.05;;
84482;SDS011;74703;51.284;22.590;2023-12-20T01:27:12;25.48;;;14.73;;
84482;SDS011;74703;51.284;22.590;2023-12-20T01:32:12;23.77;;;14.55;;
84482;SDS011;74703;51.284;22.590;2023-12-20T01:37:13;20.77;;;12.45;;
84482;SDS011;74703;51.284;22.590;2023-12-20T01:42:13;24.13;;;13.23;;
84482;SDS011;74703;51.284;22.590;2023-12-20T01:47:14;21.17;;;11.77;;
84482;SDS011;74703;51.284;22.590;2023-12-20T01:52:15;22.58;;;11.88;;
84482;SDS011;74703;51.284;22.590;2023-12-20T01:57:15;21.60;;;12.02;;
84482;SDS011;74703;51.284;22.590;2023-12-20T02:02:16;20.52;;;12.18;;
84482;SDS011;74703;51.284;22.590;2023-12-20T02:07:18;22.50;;;13.63;;
84482;SDS011;74703;51.284;22.590;2023-12-20T02:12:19;21.42;;;13.23;;
84482;SDS011;74703;51.284;22.590;2023-12-20T02:17:20;20.73;;;12.57;;
84482;SDS011;74703;51.284;22.590;2023-12-20T02:22:20;21.38;;;12.80;;
84482;SDS011;74703;51.284;22.590;2023-12-20T02:27:21;23.63;;;14.70;;
84482;SDS011;74703;51.284;22.590;2023-12-20T02:32:24;23.23;;;12.45;;
84482;SDS011;74703;51.284;22.590;2023-12-20T02:37:28;26.33;;;13.52;;
84482;SDS011;74703;51.284;22.590;2023-12-20T02:42:29;24.20;;;14.43;;
84482;SDS011;74703;51.284;22.590;2023-12-20T02:47:30;24.08;;;12.70;;
84482;SDS011;74703;51.284;22.590;2023-12-20T02:52:30;19.48;;;12.10;;
84482;SDS011;74703;51.284;22.590;2023-12-20T02:57:31;24.92;;;14.75;;
84482;SDS011;74703;51.284;22.590;2023-12-20T03:02:33;24.88;;;12.35;;
84482;SDS011;74703;51.284;22.590;2023-12-20T03:07:34;24.65;;;13.57;;
84482;SDS011;74703;51.284;22.590;2023-12-20T03:12:36;22.10;;;13.05;;
84482;SDS011;74703;51.284;22.590;2023-12-20T03:17:37;22.35;;;12.82;;
84482;SDS011;74703;51.284;22.590;2023-12-20T03:22:37;24.67;;;14.43;;
84482;SDS011;74703;51.284;22.590;2023-12-20T03:27:38;21.85;;;14.25;;
84482;SDS011;74703;51.284;22.590;2023-12-20T03:32:39;26.35;;;14.55;;
84482;SDS011;74703;51.284;22.590;2023-12-20T03:37:39;22.98;;;13.23;;
84482;SDS011;74703;51.284;22.590;2023-12-20T03:42:40;25.13;;;14.00;;
84482;SDS011;74703;51.284;22.590;2023-12-20T03:47:40;21.35;;;13.57;;
84482;SDS011;74703;51.284;22.590;2023-12-20T03:52:41;21.95;;;12.75;;
84482;SDS011;74703;51.284;22.590;2023-12-20T03:57:41;19.15;;;12.18;;
84482;SDS011;74703;51.284;22.590;2023-12-20T04:02:42;19.75;;;12.63;;
84482;SDS011;74703;51.284;22.590;2023-12-20T04:07:43;20.95;;;13.57;;
84482;SDS011;74703;51.284;22.590;2023-12-20T04:12:44;23.25;;;13.10;;
84482;SDS011;74703;51.284;22.590;2023-12-20T04:17:44;23.58;;;12.40;;
84482;SDS011;74703;51.284;22.590;2023-12-20T04:22:45;21.40;;;14.15;;
84482;SDS011;74703;51.284;22.590;2023-12-20T04:27:45;24.13;;;13.93;;
84482;SDS011;74703;51.284;22.590;2023-12-20T04:32:46;23.90;;;14.32;;
84482;SDS011;74703;51.284;22.590;2023-12-20T04:37:46;20.30;;;13.95;;
84482;SDS011;74703;51.284;22.590;2023-12-20T04:42:49;22.60;;;13.75;;
84482;SDS011;74703;51.284;22.590;2023-12-20T04:47:50;23.08;;;14.02;;
84482;SDS011;74703;51.284;22.590;2023-12-20T04:52:51;23.50;;;13.88;;
84482;SDS011;74703;51.284;22.590;2023-12-20T04:57:52;23.02;;;14.98;;
84482;SDS011;74703;51.284;22.590;2023-12-20T05:02:52;21.27;;;13.40;;
84482;SDS011;74703;51.284;22.590;2023-12-20T05:07:53;23.20;;;14.73;;
84482;SDS011;74703;51.284;22.590;2023-12-20T05:12:53;23.45;;;14.25;;
84482;SDS011;74703;51.284;22.590;2023-12-20T05:17:54;24.13;;;14.43;;
84482;SDS011;74703;51.284;22.590;2023-12-20T05:22:54;21.60;;;13.88;;
84482;SDS011;74703;51.284;22.590;2023-12-20T05:27:55;22.48;;;13.40;;
84482;SDS011;74703;51.284;22.590;2023-12-20T05:32:56;19.92;;;14.35;;
84482;SDS011;74703;51.284;22.590;2023-12-20T05:37:56;23.23;;;13.82;;
84482;SDS011;74703;51.284;22.590;2023-12-20T05:42:57;21.10;;;13.25;;
84482;SDS011;74703;51.284;22.590;2023-12-20T05:47:57;26.23;;;15.10;;
84482;SDS011;74703;51.284;22.590;2023-12-20T05:52:58;24.90;;;14.52;;
84482;SDS011;74703;51.284;22.590;2023-12-20T05:57:59;23.23;;;14.00;;
84482;SDS011;74703;51.284;22.590;2023-12-20T06:03:00;21.10;;;13.32;;
84482;SDS011;74703;51.284;22.590;2023-12-20T06:08:00;19.48;;;13.27;;
84482;SDS011;74703;51.284;22.590;2023-12-20T06:13:03;21.27;;;14.30;;
84482;SDS011;74703;51.284;22.590;2023-12-20T06:18:04;20.88;;;13.73;;
84482;SDS011;74703;51.284;22.590;2023-12-20T06:23:05;18.90;;;11.60;;
84482;SDS011;74703;51.284;22.590;2023-12-20T06:28:06;23.58;;;14.45;;
84482;SDS011;74703;51.284;22.590;2023-12-20T06:33:06;23.73;;;13.95;;
84482;SDS011;74703;51.284;22.590;2023-12-20T06:38:07;23.00;;;14.82;;
84482;SDS011;74703;51.284;22.590;2023-12-20T06:43:08;24.83;;;14.13;;
84482;SDS011;74703;51.284;22.590;2023-12-20T06:48:09;20.75;;;13.45;;
84482;SDS011;74703;51.284;22.590;2023-12-20T06:53:12;20.58;;;13.65;;
84482;SDS011;74703;51.284;22.590;2023-12-20T06:58:12;18.75;;;13.85;;
84482;SDS011;74703;51.284;22.590;2023-12-20T07:03:13;21.95;;;14.35;;
84482;SDS011;74703;51.284;22.590;2023-12-20T07:08:13;21.42;;;14.27;;
84482;SDS011;74703;51.284;22.590;2023-12-20T07:13:15;20.88;;;13.43;;
84482;SDS011;74703;51.284;22.590;2023-12-20T07:18:16;22.25;;;14.35;;
84482;SDS011;74703;51.284;22.590;2023-12-20T07:23:16;19.92;;;13.70;;
84482;SDS011;74703;51.284;22.590;2023-12-20T07:28:17;22.80;;;13.30;;
84482;SDS011;74703;51.284;22.590;2023-12-20T07:33:18;22.17;;;14.55;;
84482;SDS011;74703;51.284;22.590;2023-12-20T07:38:20;21.98;;;14.27;;
84482;SDS011;74703;51.284;22.590;2023-12-20T07:43:20;24.45;;;15.52;;
84482;SDS011;74703;51.284;22.590;2023-12-20T07:48:21;24.70;;;15.43;;
84482;SDS011;74703;51.284;22.590;2023-12-20T07:53:22;28.25;;;15.02;;
84482;SDS011;74703;51.284;22.590;2023-12-20T07:58:22;20.25;;;13.32;;
84482;SDS011;74703;51.284;22.590;2023-12-20T08:03:23;22.48;;;14.07;;
84482;SDS011;74703;51.284;22.590;2023-12-20T08:08:23;21.30;;;13.57;;
84482;SDS011;74703;51.284;22.590;2023-12-20T08:13:24;21.30;;;13.02;;
84482;SDS011;74703;51.284;22.590;2023-12-20T08:18:26;21.65;;;13.02;;
84482;SDS011;74703;51.284;22.590;2023-12-20T08:23:26;20.10;;;11.77;;
84482;SDS011;74703;51.284;22.590;2023-12-20T08:28:27;20.52;;;13.02;;
84482;SDS011;74703;51.284;22.590;2023-12-20T08:33:29;27.67;;;17.40;;
84482;SDS011;74703;51.284;22.590;2023-12-20T08:38:29;66.75;;;37.25;;
84482;SDS011;74703;51.284;22.590;2023-12-20T08:43:30;171.20;;;76.95;;
84482;SDS011;74703;51.284;22.590;2023-12-20T08:48:31;184.85;;;93.15;;
84482;SDS011;74703;51.284;22.590;2023-12-20T08:53:32;152.00;;;93.65;;
84482;SDS011;74703;51.284;22.590;2023-12-20T08:58:33;39.92;;;27.17;;
84482;SDS011;74703;51.284;22.590;2023-12-20T09:03:36;27.50;;;17.92;;
84482;SDS011;74703;51.284;22.590;2023-12-20T09:08:36;23.60;;;14.80;;
84482;SDS011;74703;51.284;22.590;2023-12-20T09:13:37;24.95;;;16.15;;
84482;SDS011;74703;51.284;22.590;2023-12-20T09:18:37;20.58;;;13.32;;
84482;SDS011;74703;51.284;22.590;2023-12-20T09:23:38;19.88;;;13.43;;
84482;SDS011;74703;51.284;22.590;2023-12-20T09:28:39;23.00;;;12.85;;
84482;SDS011;74703;51.284;22.590;2023-12-20T09:33:43;16.10;;;11.30;;
84482;SDS011;74703;51.284;22.590;2023-12-20T09:38:44;21.70;;;13.43;;
84482;SDS011;74703;51.284;22.590;2023-12-20T09:43:45;19.48;;;12.85;;
84482;SDS011;74703;51.284;22.590;2023-12-20T09:48:45;17.73;;;10.95;;
84482;SDS011;74703;51.284;22.590;2023-12-20T09:53:46;39.50;;;19.52;;
84482;SDS011;74703;51.284;22.590;2023-12-20T09:58:48;407.42;;;122.15;;
84482;SDS011;74703;51.284;22.590;2023-12-20T10:03:50;302.83;;;92.82;;
84482;SDS011;74703;51.284;22.590;2023-12-20T10:08:52;409.35;;;118.82;;
84482;SDS011;74703;51.284;22.590;2023-12-20T10:13:58;451.27;;;131.00;;
84482;SDS011;74703;51.284;22.590;2023-12-20T10:19:01;374.23;;;114.57;;
84482;SDS011;74703;51.284;22.590;2023-12-20T10:24:01;31.40;;;20.27;;
84482;SDS011;74703;51.284;22.590;2023-12-20T10:29:03;75.25;;;40.60;;
84482;SDS011;74703;51.284;22.590;2023-12-20T10:34:05;53.38;;;32.80;;
84482;SDS011;74703;51.284;22.590;2023-12-20T10:39:06;34.45;;;21.55;;
84482;SDS011;74703;51.284;22.590;2023-12-20T10:44:11;245.70;;;107.40;;
84482;SDS011;74703;51.284;22.590;2023-12-20T10:49:14;181.43;;;84.20;;
84482;SDS011;74703;51.284;22.590;2023-12-20T10:54:16;28.67;;;15.65;;
84482;SDS011;74703;51.284;22.590;2023-12-20T10:59:16;20.00;;;12.93;;
84482;SDS011;74703;51.284;22.590;2023-12-20T11:04:22;14.55;;;9.88;;
84482;SDS011;74703;51.284;22.590;2023-12-20T11:09:29;14.65;;;8.00;;
84482;SDS011;74703;51.284;22.590;2023-12-20T11:14:39;17.67;;;7.35;;
84482;SDS011;74703;51.284;22.590;2023-12-20T11:25:04;6.32;;;4.00;;
84482;SDS011;74703;51.284;22.590;2023-12-20T11:30:09;9.30;;;3.90;;
84482;SDS011;74703;51.284;22.590;2023-12-20T11:40:17;18.48;;;6.78;;
84482;SDS011;74703;51.284;22.590;2023-12-20T11:45:19;9.48;;;5.10;;
84482;SDS011;74703;51.284;22.590;2023-12-20T11:50:22;14.52;;;6.25;;
84482;SDS011;74703;51.284;22.590;2023-12-20T11:55:24;12.00;;;5.72;;
84482;SDS011;74703;51.284;22.590;2023-12-20T12:00:24;8.02;;;4.22;;
84482;SDS011;74703;51.284;22.590;2023-12-20T12:05:25;10.50;;;4.07;;
84482;SDS011;74703;51.284;22.590;2023-12-20T12:10:26;6.97;;;3.25;;
84482;SDS011;74703;51.284;22.590;2023-12-20T12:15:26;9.63;;;3.58;;
84482;SDS011;74703;51.284;22.590;2023-12-20T12:20:27;7.93;;;3.63;;
84482;SDS011;74703;51.284;22.590;2023-12-20T12:25:28;8.63;;;4.85;;
84482;SDS011;74703;51.284;22.590;2023-12-20T12:30:30;5.50;;;4.07;;
84482;SDS011;74703;51.284;22.590;2023-12-20T12:35:31;4.40;;;2.70;;
84482;SDS011;74703;51.284;22.590;2023-12-20T12:40:34;3.15;;;1.40;;
84482;SDS011;74703;51.284;22.590;2023-12-20T12:45:36;5.55;;;2.35;;
84482;SDS011;74703;51.284;22.590;2023-12-20T12:50:36;2.65;;;1.20;;
84482;SDS011;74703;51.284;22.590;2023-12-20T12:55:37;22.85;;;9.20;;
84482;SDS011;74703;51.284;22.590;2023-12-20T13:00:37;3.67;;;2.78;;
84482;SDS011;74703;51.284;22.590;2023-12-20T13:05:38;3.05;;;1.92;;
84482;SDS011;74703;51.284;22.590;2023-12-20T13:10:38;7.85;;;1.90;;
84482;SDS011;74703;51.284;22.590;2023-12-20T13:15:39;2.45;;;1.98;;
84482;SDS011;74703;51.284;22.590;2023-12-20T13:20:40;4.07;;;2.50;;
84482;SDS011;74703;51.284;22.590;2023-12-20T13:25:41;30.77;;;10.82;;
84482;SDS011;74703;51.284;22.590;2023-12-20T13:30:41;7.93;;;3.60;;
84482;SDS011;74703;51.284;22.590;2023-12-20T13:35:42;4.40;;;3.13;;
84482;SDS011;74703;51.284;22.590;2023-12-20T13:40:43;3.03;;;2.13;;
84482;SDS011;74703;51.284;22.590;2023-12-20T13:45:44;6.90;;;3.40;;
84482;SDS011;74703;51.284;22.590;2023-12-20T13:50:44;2.85;;;1.92;;
84482;SDS011;74703;51.284;22.590;2023-12-20T13:55:45;4.30;;;2.38;;
84482;SDS011;74703;51.284;22.590;2023-12-20T14:00:46;6.82;;;4.25;;
84482;SDS011;74703;51.284;22.590;2023-12-20T14:05:46;5.30;;;1.70;;
84482;SDS011;74703;51.284;22.590;2023-12-20T14:10:47;7.18;;;3.75;;
84482;SDS011;74703;51.284;22.590;2023-12-20T14:15:47;9.13;;;4.45;;
84482;SDS011;74703;51.284;22.590;2023-12-20T14:20:49;6.63;;;4.32;;
84482;SDS011;74703;51.284;22.590;2023-12-20T14:25:50;4.55;;;2.15;;
84482;SDS011;74703;51.284;22.590;2023-12-20T14:30:51;3.53;;;2.58;;
84482;SDS011;74703;51.284;22.590;2023-12-20T14:35:51;5.63;;;3.10;;
84482;SDS011;74703;51.284;22.590;2023-12-20T14:40:53;4.90;;;2.45;;
84482;SDS011;74703;51.284;22.590;2023-12-20T14:45:54;5.80;;;2.72;;
84482;SDS011;74703;51.284;22.590;2023-12-20T14:50:54;4.40;;;2.65;;
84482;SDS011;74703;51.284;22.590;2023-12-20T14:55:55;2.90;;;2.38;;
84482;SDS011;74703;51.284;22.590;2023-12-20T15:00:56;4.10;;;2.53;;
84482;SDS011;74703;51.284;22.590;2023-12-20T15:05:56;6.18;;;3.80;;
84482;SDS011;74703;51.284;22.590;2023-12-20T15:10:58;6.15;;;4.60;;
84482;SDS011;74703;51.284;22.590;2023-12-20T15:15:59;6.63;;;3.58;;
84482;SDS011;74703;51.284;22.590;2023-12-20T15:21:00;4.38;;;3.28;;
84482;SDS011;74703;51.284;22.590;2023-12-20T15:26:01;6.53;;;3.85;;
84482;SDS011;74703;51.284;22.590;2023-12-20T15:31:04;8.35;;;4.07;;
84482;SDS011;74703;51.284;22.590;2023-12-20T15:36:05;13.10;;;8.13;;
84482;SDS011;74703;51.284;22.590;2023-12-20T15:41:06;10.55;;;7.00;;
84482;SDS011;74703;51.284;22.590;2023-12-20T15:46:08;12.52;;;7.30;;
84482;SDS011;74703;51.284;22.590;2023-12-20T15:51:10;11.60;;;4.93;;
84482;SDS011;74703;51.284;22.590;2023-12-20T15:56:11;9.85;;;6.38;;
84482;SDS011;74703;51.284;22.590;2023-12-20T16:01:12;9.13;;;5.07;;
84482;SDS011;74703;51.284;22.590;2023-12-20T16:06:12;10.18;;;5.30;;
84482;SDS011;74703;51.284;22.590;2023-12-20T16:11:13;7.35;;;4.68;;
84482;SDS011;74703;51.284;22.590;2023-12-20T16:16:13;11.35;;;7.05;;
84482;SDS011;74703;51.284;22.590;2023-12-20T16:21:14;12.38;;;6.80;;
84482;SDS011;74703;51.284;22.590;2023-12-20T16:26:15;14.50;;;9.85;;
84482;SDS011;74703;51.284;22.590;2023-12-20T16:31:16;17.85;;;11.80;;
84482;SDS011;74703;51.284;22.590;2023-12-20T16:36:16;16.08;;;10.90;;
84482;SDS011;74703;51.284;22.590;2023-12-20T16:41:17;21.15;;;13.95;;
84482;SDS011;74703;51.284;22.590;2023-12-20T16:46:18;14.95;;;9.80;;
84482;SDS011;74703;51.284;22.590;2023-12-20T16:51:19;13.30;;;6.90;;
84482;SDS011;74703;51.284;22.590;2023-12-20T16:56:19;13.40;;;7.88;;
84482;SDS011;74703;51.284;22.590;2023-12-20T17:01:20;11.65;;;7.05;;
84482;SDS011;74703;51.284;22.590;2023-12-20T17:06:22;13.68;;;7.50;;
84482;SDS011;74703;51.284;22.590;2023-12-20T17:11:24;43.47;;;26.63;;
84482;SDS011;74703;51.284;22.590;2023-12-20T17:16:25;86.35;;;43.72;;
84482;SDS011;74703;51.284;22.590;2023-12-20T17:21:25;28.35;;;19.67;;
84482;SDS011;74703;51.284;22.590;2023-12-20T17:26:26;12.27;;;7.45;;
84482;SDS011;74703;51.284;22.590;2023-12-20T17:31:26;11.13;;;7.43;;
84482;SDS011;74703;51.284;22.590;2023-12-20T17:36:27;11.18;;;7.70;;
84482;SDS011;74703;51.284;22.590;2023-12-20T17:41:28;27.88;;;16.05;;
84482;SDS011;74703;51.284;22.590;2023-12-20T17:46:28;11.05;;;8.07;;
84482;SDS011;74703;51.284;22.590;2023-12-20T17:51:29;7.90;;;6.03;;
84482;SDS011;74703;51.284;22.590;2023-12-20T17:56:29;11.60;;;7.60;;
84482;SDS011;74703;51.284;22.590;2023-12-20T18:01:30;8.70;;;6.22;;
84482;SDS011;74703;51.284;22.590;2023-12-20T18:06:32;10.90;;;6.15;;
84482;SDS011;74703;51.284;22.590;2023-12-20T18:11:32;10.85;;;6.40;;
84482;SDS011;74703;51.284;22.590;2023-12-20T18:16:33;10.52;;;5.70;;
84482;SDS011;74703;51.284;22.590;2023-12-20T18:21:34;11.15;;;7.40;;
84482;SDS011;74703;51.284;22.590;2023-12-20T18:26:35;57.47;;;24.83;;
84482;SDS011;74703;51.284;22.590;2023-12-20T18:31:35;24.30;;;12.88;;
84482;SDS011;74703;51.284;22.590;2023-12-20T18:36:36;15.77;;;8.32;;
84482;SDS011;74703;51.284;22.590;2023-12-20T18:41:37;20.73;;;12.32;;
84482;SDS011;74703;51.284;22.590;2023-12-20T18:46:39;16.85;;;10.38;;
84482;SDS011;74703;51.284;22.590;2023-12-20T18:51:39;18.45;;;8.85;;
84482;SDS011;74703;51.284;22.590;2023-12-20T18:56:40;20.33;;;11.15;;
84482;SDS011;74703;51.284;22.590;2023-12-20T19:01:43;24.25;;;14.68;;
84482;SDS011;74703;51.284;22.590;2023-12-20T19:06:43;197.00;;;68.20;;
84482;SDS011;74703;51.284;22.590;2023-12-20T19:11:44;305.20;;;104.15;;
84482;SDS011;74703;51.284;22.590;2023-12-20T19:16:44;50.20;;;29.25;;
84482;SDS011;74703;51.284;22.590;2023-12-20T19:21:45;108.43;;;65.75;;
84482;SDS011;74703;51.284;22.590;2023-12-20T19:26:46;215.45;;;98.50;;
84482;SDS011;74703;51.284;22.590;2023-12-20T19:31:46;65.28;;;39.85;;
84482;SDS011;74703;51.284;22.590;2023-12-20T19:36:47;17.80;;;12.38;;
84482;SDS011;74703;51.284;22.590;2023-12-20T19:41:48;12.35;;;7.72;;
84482;SDS011;74703;51.284;22.590;2023-12-20T19:46:49;17.00;;;9.23;;
84482;SDS011;74703;51.284;22.590;2023-12-20T19:51:49;12.40;;;7.95;;
84482;SDS011;74703;51.284;22.590;2023-12-20T19:56:50;38.88;;;24.58;;
84482;SDS011;74703;51.284;22.590;2023-12-20T20:01:50;14.32;;;9.77;;
84482;SDS011;74703;51.284;22.590;2023-12-20T20:06:51;16.65;;;11.63;;
84482;SDS011;74703;51.284;22.590;2023-12-20T20:11:52;18.92;;;9.55;;
84482;SDS011;74703;51.284;22.590;2023-12-20T20:16:52;14.32;;;8.65;;
84482;SDS011;74703;51.284;22.590;2023-12-20T20:21:53;13.05;;;8.05;;
84482;SDS011;74703;51.284;22.590;2023-12-20T20:26:55;14.50;;;7.88;;
84482;SDS011;74703;51.284;22.590;2023-12-20T20:31:55;14.50;;;8.55;;
84482;SDS011;74703;51.284;22.590;2023-12-20T20:36:56;16.90;;;10.45;;
84482;SDS011;74703;51.284;22.590;2023-12-20T20:41:57;22.10;;;10.60;;
84482;SDS011;74703;51.284;22.590;2023-12-20T20:46:57;16.30;;;9.60;;
84482;SDS011;74703;51.284;22.590;2023-12-20T20:51:58;17.27;;;10.35;;
84482;SDS011;74703;51.284;22.590;2023-12-20T20:56:59;17.98;;;10.40;;
84482;SDS011;74703;51.284;22.590;2023-12-20T21:02:00;17.48;;;10.63;;
84482;SDS011;74703;51.284;22.590;2023-12-20T21:07:02;19.38;;;12.07;;
84482;SDS011;74703;51.284;22.590;2023-12-20T21:12:03;27.77;;;15.13;;
84482;SDS011;74703;51.284;22.590;2023-12-20T21:17:04;21.00;;;13.25;;
84482;SDS011;74703;51.284;22.590;2023-12-20T21:22:04;22.60;;;14.45;;
84482;SDS011;74703;51.284;22.590;2023-12-20T21:27:05;22.77;;;13.05;;
84482;SDS011;74703;51.284;22.590;2023-12-20T21:32:10;21.70;;;12.98;;
84482;SDS011;74703;51.284;22.590;2023-12-20T21:37:12;21.45;;;14.00;;
84482;SDS011;74703;51.284;22.590;2023-12-20T21:42:12;22.13;;;12.63;;
84482;SDS011;74703;51.284;22.590;2023-12-20T21:47:13;20.80;;;12.75;;
84482;SDS011;74703;51.284;22.590;2023-12-20T21:52:13;22.05;;;14.23;;
84482;SDS011;74703;51.284;22.590;2023-12-20T21:57:15;23.42;;;12.20;;
84482;SDS011;74703;51.284;22.590;2023-12-20T22:02:15;24.30;;;14.68;;
84482;SDS011;74703;51.284;22.590;2023-12-20T22:07:16;25.17;;;15.70;;
84482;SDS011;74703;51.284;22.590;2023-12-20T22:12:16;25.95;;;13.30;;
84482;SDS011;74703;51.284;22.590;2023-12-20T22:17:17;21.42;;;11.82;;
84482;SDS011;74703;51.284;22.590;2023-12-20T22:22:18;13.20;;;7.07;;
84482;SDS011;74703;51.284;22.590;2023-12-20T22:27:18;8.82;;;4.97;;
84482;SDS011;74703;51.284;22.590;2023-12-20T22:32:19;9.73;;;5.88;;
84482;SDS011;74703;51.284;22.590;2023-12-20T22:37:20;6.85;;;4.53;;
84482;SDS011;74703;51.284;22.590;2023-12-20T22:42:21;6.68;;;3.72;;
84482;SDS011;74703;51.284;22.590;2023-12-20T22:47:22;5.50;;;2.85;;
84482;SDS011;74703;51.284;22.590;2023-12-20T22:52:23;7.85;;;3.58;;
84482;SDS011;74703;51.284;22.590;2023-12-20T22:57:24;6.28;;;2.70;;
84482;SDS011;74703;51.284;22.590;2023-12-20T23:02:25;8.63;;;2.80;;
84482;SDS011;74703;51.284;22.590;2023-12-20T23:07:26;6.00;;;2.70;;
84482;SDS011;74703;51.284;22.590;2023-12-20T23:12:26;2.58;;;1.88;;
84482;SDS011;74703;51.284;22.590;2023-12-20T23:17:27;4.90;;;1.80;;
84482;SDS011;74703;51.284;22.590;2023-12-20T23:22:27;6.10;;;2.17;;
84482;SDS011;74703;51.284;22.590;2023-12-20T23:27:28;3.83;;;2.05;;
84482;SDS011;74703;51.284;22.590;2023-12-20T23:32:28;3.30;;;2.00;;
84482;SDS011;74703;51.284;22.590;2023-12-20T23:37:29;6.25;;;2.17;;
84482;SDS011;74703;51.284;22.590;2023-12-20T23:42:29;7.18;;;3.17;;
84482;SDS011;74703;51.284;22.590;2023-12-20T23:47:30;9.30;;;3.20;;
84482;SDS011;74703;51.284;22.590;2023-12-20T23:52:31;6.18;;;2.00;;
84482;SDS011;74703;51.284;22.590;2023-12-20T23:57:31;7.60;;;2.30;;
